createdAt,value
2018-01-02T00:00:13.313Z,3.35
2018-01-02T00:00:47.262Z,4.18
2018-01-02T00:01:21.413Z,3.75
2018-01-02T00:01:55.336Z,3.50
2018-01-02T00:02:29.280Z,3.55
2018-01-02T00:03:03.134Z,3.05
2018-01-02T00:03:37.190Z,3.35
2018-01-02T00:04:11.247Z,3.25
2018-01-02T00:04:45.301Z,4.80
2018-01-02T00:05:19.479Z,4.28
2018-01-02T00:05:53.332Z,3.92
2018-01-02T00:06:27.229Z,4.50
2018-01-02T00:07:01.276Z,3.90
2018-01-02T00:07:35.196Z,4.03
2018-01-02T00:08:09.084Z,4.82
2018-01-02T00:08:43.007Z,4.37
2018-01-02T00:09:17.158Z,4.82
2018-01-02T00:09:52.315Z,3.80
2018-01-02T00:10:26.218Z,3.50
2018-01-02T00:11:00.761Z,3.78
2018-01-02T00:11:35.658Z,4.20
2018-01-02T00:12:09.636Z,3.62
2018-01-02T00:12:43.525Z,3.00
2018-01-02T00:13:17.437Z,3.70
2018-01-02T00:13:51.286Z,3.87
2018-01-02T00:14:25.165Z,3.97
2018-01-02T00:14:59.377Z,3.60
2018-01-02T00:15:33.230Z,3.20
2018-01-02T00:16:07.173Z,3.05
2018-01-02T00:16:41.048Z,3.25
2018-01-02T00:17:14.944Z,3.22
2018-01-02T00:17:48.908Z,3.40
2018-01-02T00:18:22.876Z,3.00
2018-01-02T00:18:57.064Z,3.10
2018-01-02T00:19:31.064Z,3.28
2018-01-02T00:20:04.951Z,3.17
2018-01-02T00:20:38.797Z,3.50
2018-01-02T00:21:12.861Z,3.50
2018-01-02T00:21:46.816Z,3.22
2018-01-02T00:22:20.713Z,2.85
2018-01-02T00:22:54.631Z,2.83
2018-01-02T00:23:28.555Z,3.05
2018-01-02T00:24:02.424Z,2.50
2018-01-02T00:24:36.358Z,3.10
2018-01-02T00:25:10.582Z,3.35
2018-01-02T00:25:44.683Z,3.10
2018-01-02T00:26:18.748Z,3.28
2018-01-02T00:26:52.655Z,3.05
2018-01-02T00:27:26.542Z,2.83
2018-01-02T00:28:00.437Z,3.08
2018-01-02T00:28:34.384Z,3.50
2018-01-02T00:29:08.534Z,3.67
2018-01-02T00:29:42.461Z,3.45
2018-01-02T00:30:16.389Z,3.45
2018-01-02T00:30:50.268Z,3.40
2018-01-02T00:31:24.503Z,3.22
2018-01-02T00:31:58.489Z,3.12
2018-01-02T00:32:32.370Z,3.58
2018-01-02T00:33:06.212Z,5.12
2018-01-02T00:33:40.113Z,3.92
2018-01-02T00:34:14.406Z,2.92
2018-01-02T00:34:48.664Z,2.80
2018-01-02T00:35:22.549Z,3.60
2018-01-02T00:35:56.405Z,4.60
2018-01-02T00:36:30.283Z,4.60
2018-01-02T00:37:04.141Z,2.70
2018-01-02T00:37:38.028Z,3.35
2018-01-02T00:38:12.061Z,3.92
2018-01-02T00:38:45.928Z,4.20
2018-01-02T00:39:19.844Z,4.78
2018-01-02T00:39:54.053Z,3.10
2018-01-02T00:40:28.016Z,3.58
2018-01-02T00:41:01.884Z,4.45
2018-01-02T00:41:35.739Z,4.37
2018-01-02T00:42:09.696Z,3.30
2018-01-02T00:42:43.594Z,4.40
2018-01-02T00:43:17.486Z,3.75
2018-01-02T00:43:51.378Z,3.60
2018-01-02T00:44:25.255Z,2.80
2018-01-02T00:44:59.176Z,3.40
2018-01-02T00:45:33.081Z,3.15
2018-01-02T00:46:06.960Z,4.15
2018-01-02T00:46:40.813Z,3.45
2018-01-02T00:47:14.683Z,4.07
2018-01-02T00:47:48.668Z,3.62
2018-01-02T00:48:22.648Z,3.70
2018-01-02T00:48:56.701Z,3.70
2018-01-02T00:49:30.587Z,3.67
2018-01-02T00:50:04.475Z,2.95
2018-01-02T00:50:38.397Z,3.25
2018-01-02T00:51:12.334Z,3.42
2018-01-02T00:51:46.470Z,3.33
2018-01-02T00:52:20.347Z,4.05
2018-01-02T00:52:54.459Z,3.40
2018-01-02T00:53:28.464Z,3.83
2018-01-02T00:54:02.354Z,3.50
2018-01-02T00:54:37.277Z,3.53
2018-01-02T00:55:11.134Z,3.80
2018-01-02T00:55:45.087Z,3.42
2018-01-02T00:56:19.027Z,5.78
2018-01-02T00:56:53.023Z,3.58
2018-01-02T00:57:27.115Z,3.90
2018-01-02T00:58:00.998Z,3.83
2018-01-02T00:58:34.905Z,3.80
2018-01-02T00:59:08.780Z,4.82
2018-01-02T00:59:42.718Z,5.70
2018-01-02T01:00:16.600Z,3.60
2018-01-02T01:00:50.578Z,3.95
2018-01-02T01:01:24.434Z,2.90
2018-01-02T01:01:58.359Z,4.35
2018-01-02T01:02:32.293Z,2.97
2018-01-02T01:03:06.163Z,3.25
2018-01-02T01:03:40.044Z,3.35
2018-01-02T01:04:14.009Z,3.15
2018-01-02T01:04:48.794Z,4.30
2018-01-02T01:05:22.752Z,3.60
2018-01-02T01:05:56.792Z,3.45
2018-01-02T01:06:30.911Z,3.75
2018-01-02T01:07:04.787Z,3.67
2018-01-02T01:07:39.189Z,3.60
2018-01-02T01:08:13.332Z,3.58
2018-01-02T01:08:47.431Z,4.70
2018-01-02T01:09:21.378Z,4.30
2018-01-02T01:09:55.697Z,3.50
2018-01-02T01:10:36.657Z,3.65
2018-01-02T01:11:10.563Z,4.15
2018-01-02T01:11:44.529Z,4.55
2018-01-02T01:12:18.553Z,3.95
2018-01-02T01:12:52.499Z,4.72
2018-01-02T01:13:26.457Z,3.78
2018-01-02T01:14:00.433Z,3.40
2018-01-02T01:14:36.174Z,3.60
2018-01-02T01:15:10.125Z,4.22
2018-01-02T01:15:44.238Z,4.78
2018-01-02T01:16:18.195Z,3.22
2018-01-02T01:16:52.276Z,3.60
2018-01-02T01:17:26.365Z,3.85
2018-01-02T01:18:00.252Z,2.97
2018-01-02T01:18:34.209Z,3.20
2018-01-02T01:19:08.215Z,2.90
2018-01-02T01:19:42.167Z,2.78
2018-01-02T01:20:16.112Z,4.03
2018-01-02T01:20:50.185Z,3.40
2018-01-02T01:21:24.161Z,3.15
2018-01-02T01:21:58.113Z,3.25
2018-01-02T01:22:32.280Z,3.15
2018-01-02T01:23:06.201Z,2.65
2018-01-02T01:23:40.084Z,2.78
2018-01-02T01:24:13.961Z,3.50
2018-01-02T01:24:47.813Z,2.85
2018-01-02T01:25:21.704Z,3.60
2018-01-02T01:25:55.854Z,3.20
2018-01-02T01:26:29.901Z,3.08
2018-01-02T01:27:03.796Z,3.40
2018-01-02T01:27:37.753Z,2.85
2018-01-02T01:28:11.620Z,2.90
2018-01-02T01:28:45.689Z,3.20
2018-01-02T01:29:19.629Z,3.10
2018-01-02T01:29:53.552Z,3.40
2018-01-02T01:30:27.423Z,3.20
2018-01-02T01:31:01.365Z,3.28
2018-01-02T01:31:35.468Z,2.92
2018-01-02T01:32:09.487Z,2.80
2018-01-02T01:32:43.462Z,2.80
2018-01-02T01:33:17.618Z,3.35
2018-01-02T01:33:51.589Z,2.78
2018-01-02T01:34:25.500Z,3.92
2018-01-02T01:34:59.490Z,3.20
2018-01-02T01:35:33.382Z,3.00
2018-01-02T01:36:07.321Z,2.85
2018-01-02T01:36:41.184Z,3.08
2018-01-02T01:37:15.066Z,3.60
2018-01-02T01:37:49.125Z,3.17
2018-01-02T01:38:22.983Z,2.70
2018-01-02T01:38:56.916Z,3.22
2018-01-02T01:39:31.037Z,2.90
2018-01-02T01:40:05.158Z,2.58
2018-01-02T01:40:39.135Z,3.53
2018-01-02T01:41:13.050Z,4.70
2018-01-02T01:41:47.037Z,2.90
2018-01-02T01:42:21.129Z,4.87
2018-01-02T01:42:55.041Z,3.17
2018-01-02T01:43:28.933Z,3.30
2018-01-02T01:44:03.345Z,3.00
2018-01-02T01:44:37.296Z,3.20
2018-01-02T01:45:11.233Z,3.35
2018-01-02T01:45:45.238Z,3.10
2018-01-02T01:46:19.307Z,3.37
2018-01-02T01:46:53.188Z,3.35
2018-01-02T01:47:27.097Z,3.37
2018-01-02T01:48:00.984Z,4.20
2018-01-02T01:48:40.611Z,3.37
2018-01-02T01:49:14.501Z,3.30
2018-01-02T01:49:48.412Z,2.65
2018-01-02T01:50:22.624Z,3.62
2018-01-02T01:50:56.487Z,3.50
2018-01-02T01:51:30.372Z,3.47
2018-01-02T01:52:04.265Z,2.90
2018-01-02T01:52:38.118Z,3.00
2018-01-02T01:53:12.009Z,3.37
2018-01-02T01:53:45.962Z,3.20
2018-01-02T01:54:20.053Z,3.17
2018-01-02T01:54:53.956Z,3.60
2018-01-02T01:55:28.212Z,2.85
2018-01-02T01:56:02.093Z,4.05
2018-01-02T01:56:35.965Z,3.40
2018-01-02T01:57:09.880Z,2.62
2018-01-02T01:57:44.091Z,3.58
2018-01-02T01:58:18.009Z,4.10
2018-01-02T01:58:52.132Z,3.03
2018-01-02T01:59:26.034Z,3.40
2018-01-02T01:59:59.965Z,3.15
2018-01-02T02:00:34.040Z,2.70
2018-01-02T02:01:07.913Z,4.18
2018-01-02T02:01:41.780Z,3.10
2018-01-02T02:02:15.659Z,3.03
2018-01-02T02:02:49.580Z,3.40
2018-01-02T02:03:23.497Z,3.80
2018-01-02T02:03:57.444Z,3.20
2018-01-02T02:04:31.343Z,3.72
2018-01-02T02:05:05.388Z,3.53
2018-01-02T02:05:39.598Z,2.50
2018-01-02T02:06:13.519Z,2.78
2018-01-02T02:06:47.393Z,2.65
2018-01-02T02:07:21.381Z,2.95
2018-01-02T02:07:56.025Z,3.55
2018-01-02T02:08:29.967Z,3.25
2018-01-02T02:09:04.093Z,2.83
2018-01-02T02:09:37.997Z,3.25
2018-01-02T02:10:11.913Z,2.90
2018-01-02T02:10:45.808Z,2.80
2018-01-02T02:11:19.869Z,2.75
2018-01-02T02:11:53.763Z,3.97
2018-01-02T02:12:28.065Z,3.20
2018-01-02T02:13:01.957Z,3.00
2018-01-02T02:13:35.987Z,3.33
2018-01-02T02:14:09.848Z,3.00
2018-01-02T02:14:43.985Z,4.12
2018-01-02T02:15:17.904Z,3.40
2018-01-02T02:15:51.800Z,3.10
2018-01-02T02:16:25.698Z,3.50
2018-01-02T02:16:59.566Z,3.45
2018-01-02T02:17:33.421Z,2.90
2018-01-02T02:18:07.496Z,3.03
2018-01-02T02:18:41.633Z,2.87
2018-01-02T02:19:15.519Z,3.47
2018-01-02T02:19:49.431Z,2.97
2018-01-02T02:20:23.505Z,2.78
2018-01-02T02:20:57.461Z,2.47
2018-01-02T02:21:31.312Z,3.28
2018-01-02T02:22:05.560Z,3.60
2018-01-02T02:22:39.548Z,3.20
2018-01-02T02:23:13.447Z,3.00
2018-01-02T02:23:47.351Z,2.65
2018-01-02T02:24:21.305Z,3.05
2018-01-02T02:24:55.308Z,3.40
2018-01-02T02:25:29.184Z,3.50
2018-01-02T02:26:03.398Z,3.90
2018-01-02T02:26:37.623Z,3.00
2018-01-02T02:27:11.490Z,3.20
2018-01-02T02:27:45.521Z,2.83
2018-01-02T02:28:19.389Z,3.50
2018-01-02T02:28:53.638Z,2.95
2018-01-02T02:29:27.528Z,3.85
2018-01-02T02:30:01.528Z,2.67
2018-01-02T02:30:35.470Z,2.75
2018-01-02T02:31:09.318Z,2.67
2018-01-02T02:31:43.214Z,3.08
2018-01-02T02:32:17.389Z,3.80
2018-01-02T02:32:51.266Z,2.85
2018-01-02T02:33:25.174Z,2.75
2018-01-02T02:33:59.096Z,3.00
2018-01-02T02:34:33.092Z,3.17
2018-01-02T02:35:06.980Z,3.00
2018-01-02T02:35:40.955Z,3.10
2018-01-02T02:36:15.004Z,3.25
2018-01-02T02:36:49.157Z,3.40
2018-01-02T02:37:23.100Z,3.15
2018-01-02T02:37:57.387Z,3.00
2018-01-02T02:38:31.301Z,3.20
2018-01-02T02:39:05.463Z,3.30
2018-01-02T02:39:39.491Z,2.90
2018-01-02T02:40:13.368Z,2.90
2018-01-02T02:40:53.108Z,3.15
2018-01-02T02:41:26.968Z,3.00
2018-01-02T02:42:01.101Z,2.78
2018-01-02T02:42:34.968Z,3.25
2018-01-02T02:43:08.838Z,2.85
2018-01-02T02:43:42.866Z,3.20
2018-01-02T02:44:16.762Z,3.37
2018-01-02T02:44:50.661Z,2.80
2018-01-02T02:45:24.603Z,2.90
2018-01-02T02:45:58.495Z,3.03
2018-01-02T02:46:32.510Z,3.03
2018-01-02T02:47:06.404Z,3.22
2018-01-02T02:47:40.356Z,3.17
2018-01-02T02:48:14.352Z,3.15
2018-01-02T02:48:48.236Z,3.62
2018-01-02T02:49:22.182Z,2.90
2018-01-02T02:49:56.042Z,2.62
2018-01-02T02:50:29.921Z,3.78
2018-01-02T02:51:03.766Z,2.80
2018-01-02T02:51:37.913Z,3.17
2018-01-02T02:52:11.840Z,3.33
2018-01-02T02:52:45.944Z,3.40
2018-01-02T02:53:19.859Z,3.08
2018-01-02T02:53:53.739Z,2.58
2018-01-02T02:54:27.905Z,3.30
2018-01-02T02:55:01.797Z,3.80
2018-01-02T02:55:35.661Z,3.28
2018-01-02T02:56:09.509Z,2.85
2018-01-02T02:56:43.370Z,2.95
2018-01-02T02:57:17.277Z,3.33
2018-01-02T02:57:51.154Z,3.10
2018-01-02T02:58:25.056Z,3.53
2018-01-02T02:58:59.048Z,3.25
2018-01-02T02:59:32.936Z,3.45
2018-01-02T03:00:06.797Z,3.08
2018-01-02T03:00:40.703Z,2.67
2018-01-02T03:01:14.760Z,2.70
2018-01-02T03:01:48.629Z,2.58
2018-01-02T03:02:22.522Z,3.42
2018-01-02T03:02:56.397Z,3.55
2018-01-02T03:03:30.265Z,3.12
2018-01-02T03:04:04.232Z,3.00
2018-01-02T03:04:38.163Z,2.90
2018-01-02T03:05:12.282Z,3.15
2018-01-02T03:05:46.187Z,2.92
2018-01-02T03:06:20.096Z,4.12
2018-01-02T03:06:53.941Z,4.10
2018-01-02T03:07:27.886Z,4.22
2018-01-02T03:08:02.069Z,3.75
2018-01-02T03:08:36.157Z,3.03
2018-01-02T03:09:10.041Z,4.03
2018-01-02T03:09:43.926Z,3.40
2018-01-02T03:10:17.948Z,4.30
2018-01-02T03:10:51.812Z,3.62
2018-01-02T03:11:25.811Z,3.45
2018-01-02T03:11:59.893Z,3.58
2018-01-02T03:12:33.799Z,3.10
2018-01-02T03:13:07.776Z,3.72
2018-01-02T03:13:41.656Z,3.37
2018-01-02T03:14:15.648Z,3.75
2018-01-02T03:14:49.616Z,3.70
2018-01-02T03:15:23.571Z,3.45
2018-01-02T03:15:57.502Z,3.20
2018-01-02T03:16:31.488Z,3.45
2018-01-02T03:17:05.406Z,3.30
2018-01-02T03:17:39.395Z,3.35
2018-01-02T03:18:13.390Z,3.50
2018-01-02T03:18:47.248Z,4.00
2018-01-02T03:19:21.213Z,3.45
2018-01-02T03:19:55.289Z,3.00
2018-01-02T03:20:29.272Z,3.70
2018-01-02T03:21:03.395Z,3.22
2018-01-02T03:21:37.272Z,3.20
2018-01-02T03:22:11.225Z,3.28
2018-01-02T03:22:45.224Z,3.80
2018-01-02T03:23:19.081Z,3.58
2018-01-02T03:23:53.060Z,3.55
2018-01-02T03:24:26.965Z,3.85
2018-01-02T03:25:00.840Z,3.12
2018-01-02T03:25:34.808Z,3.80
2018-01-02T03:26:08.758Z,3.72
2018-01-02T03:26:42.663Z,3.30
2018-01-02T03:27:16.558Z,3.55
2018-01-02T03:27:50.448Z,3.75
2018-01-02T03:28:24.392Z,4.00
2018-01-02T03:28:58.291Z,4.15
2018-01-02T03:29:32.250Z,3.30
2018-01-02T03:30:06.250Z,3.60
2018-01-02T03:30:40.101Z,3.60
2018-01-02T03:31:14.068Z,3.22
2018-01-02T03:31:47.996Z,3.53
2018-01-02T03:32:21.883Z,3.17
2018-01-02T03:32:56.124Z,2.80
2018-01-02T03:33:30.219Z,3.55
2018-01-02T03:34:04.140Z,4.10
2018-01-02T03:34:38.177Z,3.40
2018-01-02T03:35:12.192Z,3.22
2018-01-02T03:35:46.055Z,3.70
2018-01-02T03:36:20.064Z,3.25
2018-01-02T03:36:53.936Z,2.90
2018-01-02T03:37:28.139Z,3.05
2018-01-02T03:38:02.085Z,3.55
2018-01-02T03:38:36.099Z,3.15
2018-01-02T03:39:10.009Z,3.62
2018-01-02T03:39:43.929Z,3.30
2018-01-02T03:40:17.838Z,3.22
2018-01-02T03:40:52.016Z,3.33
2018-01-02T03:41:26.144Z,3.17
2018-01-02T03:42:00.273Z,3.55
2018-01-02T03:42:34.209Z,4.32
2018-01-02T03:43:08.094Z,3.53
2018-01-02T03:43:41.992Z,3.95
2018-01-02T03:44:15.867Z,3.30
2018-01-02T03:44:49.742Z,3.97
2018-01-02T03:45:23.677Z,3.50
2018-01-02T03:45:57.636Z,3.30
2018-01-02T03:46:31.587Z,3.70
2018-01-02T03:47:05.770Z,3.37
2018-01-02T03:47:39.683Z,4.22
2018-01-02T03:48:13.719Z,4.37
2018-01-02T03:48:47.600Z,4.00
2018-01-02T03:49:21.588Z,3.45
2018-01-02T03:49:55.551Z,3.65
2018-01-02T03:50:29.465Z,3.55
2018-01-02T03:51:03.375Z,3.50
2018-01-02T03:51:37.340Z,4.10
2018-01-02T03:52:11.349Z,3.33
2018-01-02T03:52:45.224Z,3.60
2018-01-02T03:53:19.091Z,4.22
2018-01-02T03:53:53.118Z,3.30
2018-01-02T03:54:26.981Z,3.75
2018-01-02T03:55:01.078Z,3.92
2018-01-02T03:55:35.014Z,3.67
2018-01-02T03:56:09.072Z,4.60
2018-01-02T03:56:43.007Z,3.62
2018-01-02T03:57:16.886Z,3.12
2018-01-02T03:57:50.829Z,3.50
2018-01-02T03:58:24.851Z,4.93
2018-01-02T03:58:59.707Z,4.15
2018-01-02T03:59:33.610Z,4.25
2018-01-02T04:00:07.501Z,4.30
2018-01-02T04:00:41.552Z,3.87
2018-01-02T04:01:15.528Z,4.80
2018-01-02T04:01:49.449Z,3.80
2018-01-02T04:02:23.425Z,4.55
2018-01-02T04:02:57.396Z,4.20
2018-01-02T04:03:31.522Z,4.00
2018-01-02T04:04:05.485Z,4.25
2018-01-02T04:04:39.399Z,4.28
2018-01-02T04:05:13.303Z,4.47
2018-01-02T04:05:47.249Z,3.80
2018-01-02T04:06:21.218Z,3.90
2018-01-02T04:06:55.108Z,4.20
2018-01-02T04:07:28.952Z,3.90
2018-01-02T04:08:02.839Z,3.50
2018-01-02T04:08:36.736Z,4.28
2018-01-02T04:09:10.585Z,3.80
2018-01-02T04:09:44.433Z,3.67
2018-01-02T04:10:18.462Z,4.22
2018-01-02T04:10:52.675Z,4.22
2018-01-02T04:11:26.590Z,3.80
2018-01-02T04:12:00.523Z,4.43
2018-01-02T04:12:34.713Z,4.40
2018-01-02T04:13:08.625Z,5.03
2018-01-02T04:13:42.514Z,4.05
2018-01-02T04:14:16.405Z,4.18
2018-01-02T04:14:50.468Z,4.00
2018-01-02T04:15:24.379Z,4.25
2018-01-02T04:15:58.298Z,4.35
2018-01-02T04:16:32.365Z,4.75
2018-01-02T04:17:06.325Z,4.40
2018-01-02T04:17:40.213Z,4.93
2018-01-02T04:18:14.112Z,3.78
2018-01-02T04:18:48.027Z,4.60
2018-01-02T04:19:21.912Z,4.55
2018-01-02T04:19:55.921Z,3.97
2018-01-02T04:20:29.800Z,4.30
2018-01-02T04:21:04.217Z,4.40
2018-01-02T04:21:38.177Z,3.83
2018-01-02T04:22:12.056Z,4.25
2018-01-02T04:22:46.134Z,4.25
2018-01-02T04:23:20.097Z,4.70
2018-01-02T04:23:54.148Z,4.05
2018-01-02T04:24:28.076Z,4.45
2018-01-02T04:25:02.036Z,4.10
2018-01-02T04:25:35.985Z,4.50
2018-01-02T04:26:09.891Z,4.28
2018-01-02T04:26:44.293Z,4.72
2018-01-02T04:27:18.240Z,4.10
2018-01-02T04:27:52.360Z,4.82
2018-01-02T04:28:26.341Z,4.07
2018-01-02T04:29:00.264Z,4.68
2018-01-02T04:29:34.169Z,4.28
2018-01-02T04:30:08.259Z,4.40
2018-01-02T04:30:42.170Z,4.53
2018-01-02T04:31:16.021Z,4.22
2018-01-02T04:31:49.889Z,4.35
2018-01-02T04:32:23.956Z,5.10
2018-01-02T04:32:57.826Z,4.32
2018-01-02T04:33:31.694Z,4.95
2018-01-02T04:34:05.625Z,4.60
2018-01-02T04:34:39.680Z,4.72
2018-01-02T04:35:13.806Z,5.20
2018-01-02T04:35:47.812Z,4.70
2018-01-02T04:36:21.976Z,4.82
2018-01-02T04:36:55.924Z,4.70
2018-01-02T04:37:30.005Z,4.43
2018-01-02T04:38:03.897Z,4.20
2018-01-02T04:38:37.829Z,4.50
2018-01-02T04:39:11.718Z,4.78
2018-01-02T04:39:45.822Z,5.12
2018-01-02T04:40:19.829Z,4.95
2018-01-02T04:40:53.757Z,4.90
2018-01-02T04:41:27.716Z,4.78
2018-01-02T04:42:01.785Z,5.20
2018-01-02T04:42:35.706Z,5.30
2018-01-02T04:43:09.676Z,6.75
2018-01-02T04:43:43.580Z,6.25
2018-01-02T04:44:17.465Z,6.90
2018-01-02T04:44:51.394Z,6.62
2018-01-02T04:45:25.495Z,7.05
2018-01-02T04:45:59.716Z,6.37
2018-01-02T04:46:33.795Z,6.62
2018-01-02T04:47:07.677Z,7.55
2018-01-02T04:47:41.565Z,7.07
2018-01-02T04:48:15.451Z,5.95
2018-01-02T04:48:49.323Z,5.93
2018-01-02T04:49:23.273Z,5.30
2018-01-02T04:49:57.125Z,5.72
2018-01-02T04:50:30.984Z,6.37
2018-01-02T04:51:04.853Z,5.90
2018-01-02T04:51:39.060Z,6.20
2018-01-02T04:52:12.921Z,6.50
2018-01-02T04:52:46.879Z,5.20
2018-01-02T04:53:20.838Z,6.00
2018-01-02T04:53:54.748Z,6.22
2018-01-02T04:54:28.680Z,5.40
2018-01-02T04:55:02.556Z,6.30
2018-01-02T04:55:36.529Z,6.62
2018-01-02T04:56:10.393Z,7.12
2018-01-02T04:56:44.477Z,6.47
2018-01-02T04:57:18.831Z,6.90
2018-01-02T04:57:52.730Z,6.03
2018-01-02T04:58:26.627Z,5.70
2018-01-02T04:59:00.626Z,6.00
2018-01-02T04:59:34.469Z,5.80
2018-01-02T05:00:08.524Z,5.87
2018-01-02T05:00:42.421Z,6.25
2018-01-02T05:01:16.426Z,6.10
2018-01-02T05:01:50.313Z,6.75
2018-01-02T05:02:24.230Z,6.43
2018-01-02T05:02:58.127Z,7.05
2018-01-02T05:03:32.020Z,7.43
2018-01-02T05:04:05.990Z,7.82
2018-01-02T05:04:39.946Z,8.38
2018-01-02T05:05:13.811Z,8.50
2018-01-02T05:05:47.720Z,6.68
2018-01-02T05:06:22.417Z,7.22
2018-01-02T05:06:56.312Z,6.55
2018-01-02T05:07:30.413Z,6.90
2018-01-02T05:08:04.342Z,6.25
2018-01-02T05:08:38.261Z,6.07
2018-01-02T05:09:12.168Z,7.55
2018-01-02T05:09:46.403Z,6.12
2018-01-02T05:10:20.270Z,6.37
2018-01-02T05:10:54.189Z,7.37
2018-01-02T05:11:28.210Z,9.02
2018-01-02T05:12:02.050Z,8.48
2018-01-02T05:12:36.052Z,8.07
2018-01-02T05:13:10.048Z,8.00
2018-01-02T05:13:49.394Z,7.78
2018-01-02T05:14:23.473Z,7.45
2018-01-02T05:14:57.386Z,7.45
2018-01-02T05:15:31.485Z,7.53
2018-01-02T05:16:05.462Z,6.85
2018-01-02T05:16:39.899Z,7.55
2018-01-02T05:17:13.821Z,6.20
2018-01-02T05:17:47.722Z,6.35
2018-01-02T05:18:21.681Z,6.20
2018-01-02T05:18:55.569Z,6.15
2018-01-02T05:19:29.452Z,6.30
2018-01-02T05:20:03.482Z,5.85
2018-01-02T05:20:37.520Z,6.40
2018-01-02T05:21:11.467Z,6.12
2018-01-02T05:21:45.556Z,7.68
2018-01-02T05:22:19.491Z,6.93
2018-01-02T05:22:53.799Z,6.28
2018-01-02T05:23:27.985Z,7.40
2018-01-02T05:24:01.920Z,7.32
2018-01-02T05:24:35.812Z,7.30
2018-01-02T05:25:09.768Z,6.95
2018-01-02T05:25:43.633Z,7.18
2018-01-02T05:26:17.680Z,6.93
2018-01-02T05:26:51.757Z,6.55
2018-01-02T05:27:25.624Z,7.57
2018-01-02T05:27:59.601Z,6.75
2018-01-02T05:28:33.505Z,6.00
2018-01-02T05:29:07.565Z,7.15
2018-01-02T05:29:41.530Z,7.65
2018-01-02T05:30:15.607Z,7.07
2018-01-02T05:30:49.544Z,6.35
2018-01-02T05:31:23.420Z,7.62
2018-01-02T05:31:57.417Z,7.47
2018-01-02T05:32:31.399Z,6.47
2018-01-02T05:33:05.321Z,7.20
2018-01-02T05:33:39.231Z,7.07
2018-01-02T05:34:13.216Z,6.57
2018-01-02T05:34:47.089Z,6.82
2018-01-02T05:35:21.193Z,6.90
2018-01-02T05:35:55.254Z,6.70
2018-01-02T05:36:29.287Z,7.30
2018-01-02T05:37:03.172Z,6.40
2018-01-02T05:37:37.080Z,6.05
2018-01-02T05:38:11.077Z,6.45
2018-01-02T05:38:44.973Z,7.50
2018-01-02T05:39:18.908Z,7.03
2018-01-02T05:39:52.919Z,8.50
2018-01-02T05:40:26.882Z,7.30
2018-01-02T05:41:01.018Z,6.07
2018-01-02T05:41:35.004Z,7.12
2018-01-02T05:42:08.948Z,7.15
2018-01-02T05:42:42.848Z,7.00
2018-01-02T05:43:16.729Z,8.65
2018-01-02T05:43:50.685Z,7.60
2018-01-02T05:44:24.784Z,8.25
2018-01-02T05:44:58.715Z,6.40
2018-01-02T05:45:32.668Z,6.30
2018-01-02T05:46:06.556Z,6.68
2018-01-02T05:46:40.501Z,5.70
2018-01-02T05:47:14.380Z,6.57
2018-01-02T05:47:48.313Z,6.40
2018-01-02T05:48:22.160Z,7.75
2018-01-02T05:48:56.099Z,7.03
2018-01-02T05:49:29.956Z,7.00
2018-01-02T05:50:04.148Z,6.97
2018-01-02T05:50:38.162Z,6.43
2018-01-02T05:51:12.093Z,7.00
2018-01-02T05:51:46.100Z,6.75
2018-01-02T05:52:20.249Z,7.15
2018-01-02T05:52:54.162Z,7.40
2018-01-02T05:53:28.025Z,6.75
2018-01-02T05:54:01.897Z,8.63
2018-01-02T05:54:35.788Z,8.82
2018-01-02T05:55:09.802Z,8.63
2018-01-02T05:55:43.719Z,8.48
2018-01-02T05:56:17.631Z,6.97
2018-01-02T05:56:51.769Z,7.00
2018-01-02T05:57:25.637Z,7.70
2018-01-02T05:57:59.524Z,7.93
2018-01-02T05:58:33.395Z,7.80
2018-01-02T05:59:07.290Z,8.27
2018-01-02T05:59:41.203Z,7.30
2018-01-02T06:00:15.314Z,7.45
2018-01-02T06:00:49.245Z,8.00
2018-01-02T06:01:23.332Z,7.68
2018-01-02T06:01:57.276Z,7.87
2018-01-02T06:02:31.174Z,8.05
2018-01-02T06:03:05.057Z,7.10
2018-01-02T06:03:39.061Z,8.48
2018-01-02T06:04:12.989Z,6.62
2018-01-02T06:04:47.027Z,7.05
2018-01-02T06:05:20.967Z,7.70
2018-01-02T06:05:54.874Z,8.25
2018-01-02T06:06:28.771Z,8.50
2018-01-02T06:07:02.768Z,8.85
2018-01-02T06:07:36.693Z,8.38
2018-01-02T06:08:10.608Z,7.55
2018-01-02T06:08:44.487Z,8.57
2018-01-02T06:09:18.452Z,6.95
2018-01-02T06:09:52.357Z,7.25
2018-01-02T06:10:26.378Z,6.70
2018-01-02T06:11:00.295Z,6.32
2018-01-02T06:11:34.403Z,6.90
2018-01-02T06:12:08.486Z,5.68
2018-01-02T06:12:42.348Z,6.75
2018-01-02T06:13:17.113Z,6.57
2018-01-02T06:13:50.970Z,6.93
2018-01-02T06:14:24.905Z,7.57
2018-01-02T06:14:58.854Z,8.05
2018-01-02T06:15:32.727Z,8.52
2018-01-02T06:16:06.685Z,6.03
2018-01-02T06:16:40.609Z,5.40
2018-01-02T06:17:14.608Z,5.70
2018-01-02T06:17:48.560Z,5.55
2018-01-02T06:18:22.452Z,6.40
2018-01-02T06:18:56.423Z,5.50
2018-01-02T06:19:30.360Z,5.70
2018-01-02T06:20:04.307Z,5.60
2018-01-02T06:20:38.333Z,6.15
2018-01-02T06:21:12.258Z,5.93
2018-01-02T06:21:46.372Z,5.68
2018-01-02T06:22:20.248Z,5.68
2018-01-02T06:22:54.244Z,5.60
2018-01-02T06:23:28.124Z,5.80
2018-01-02T06:24:02.051Z,5.55
2018-01-02T06:24:35.952Z,5.43
2018-01-02T06:25:09.948Z,4.85
2018-01-02T06:25:44.186Z,5.60
2018-01-02T06:26:18.185Z,5.32
2018-01-02T06:26:52.248Z,5.25
2018-01-02T06:27:26.990Z,4.82
2018-01-02T06:28:00.951Z,5.22
2018-01-02T06:28:34.857Z,5.50
2018-01-02T06:29:08.808Z,5.30
2018-01-02T06:29:43.089Z,4.90
2018-01-02T06:30:17.005Z,4.30
2018-01-02T06:30:51.139Z,4.75
2018-01-02T06:31:25.182Z,4.75
2018-01-02T06:31:59.238Z,4.70
2018-01-02T06:32:33.152Z,4.18
2018-01-02T06:33:07.137Z,3.80
2018-01-02T06:33:41.076Z,4.30
2018-01-02T06:34:14.963Z,3.67
2018-01-02T06:34:49.238Z,4.68
2018-01-02T06:35:23.227Z,4.60
2018-01-02T06:35:57.302Z,4.47
2018-01-02T06:36:31.991Z,4.50
2018-01-02T06:37:06.072Z,4.12
2018-01-02T06:37:39.924Z,3.90
2018-01-02T06:38:13.852Z,3.42
2018-01-02T06:38:47.724Z,4.00
2018-01-02T06:39:21.637Z,4.05
2018-01-02T06:39:55.513Z,3.47
2018-01-02T06:40:29.412Z,3.47
2018-01-02T06:41:03.291Z,3.37
2018-01-02T06:41:37.179Z,3.00
2018-01-02T06:42:11.039Z,3.67
2018-01-02T06:42:45.024Z,3.62
2018-01-02T06:43:18.945Z,4.45
2018-01-02T06:43:52.934Z,4.20
2018-01-02T06:44:27.039Z,3.70
2018-01-02T06:45:01.068Z,3.72
2018-01-02T06:45:35.167Z,4.20
2018-01-02T06:46:09.090Z,3.67
2018-01-02T06:46:42.990Z,4.12
2018-01-02T06:47:16.864Z,4.00
2018-01-02T06:47:50.719Z,3.85
2018-01-02T06:48:24.758Z,4.10
2018-01-02T06:48:58.738Z,3.83
2018-01-02T06:49:32.627Z,4.00
2018-01-02T06:50:06.755Z,3.83
2018-01-02T06:50:40.783Z,4.53
2018-01-02T06:51:14.653Z,5.30
2018-01-02T06:51:48.550Z,4.35
2018-01-02T06:52:22.850Z,5.12
2018-01-02T06:52:56.921Z,5.43
2018-01-02T06:53:30.940Z,6.10
2018-01-02T06:54:05.146Z,5.68
2018-01-02T06:54:39.244Z,6.30
2018-01-02T06:55:13.369Z,5.50
2018-01-02T06:55:47.490Z,5.43
2018-01-02T06:56:21.493Z,5.78
2018-01-02T06:56:55.416Z,6.45
2018-01-02T06:57:29.285Z,5.60
2018-01-02T06:58:03.148Z,6.05
2018-01-02T06:58:37.236Z,5.80
2018-01-02T06:59:11.116Z,5.72
2018-01-02T06:59:45.073Z,6.45
2018-01-02T07:00:18.950Z,5.95
2018-01-02T07:00:52.817Z,7.00
2018-01-02T07:01:26.704Z,6.28
2018-01-02T07:02:00.883Z,6.65
2018-01-02T07:02:34.800Z,7.00
2018-01-02T07:03:08.721Z,7.03
2018-01-02T07:03:42.658Z,6.37
2018-01-02T07:04:17.805Z,7.70
2018-01-02T07:04:51.660Z,6.37
2018-01-02T07:05:25.573Z,6.00
2018-01-02T07:05:59.593Z,6.40
2018-01-02T07:06:33.597Z,7.25
2018-01-02T07:07:07.470Z,6.87
2018-01-02T07:07:41.333Z,6.87
2018-01-02T07:08:16.180Z,6.47
2018-01-02T07:08:50.117Z,6.25
2018-01-02T07:09:23.996Z,6.35
2018-01-02T07:09:58.217Z,6.57
2018-01-02T07:10:32.232Z,5.75
2018-01-02T07:11:06.221Z,5.55
2018-01-02T07:11:40.386Z,5.62
2018-01-02T07:12:14.523Z,6.15
2018-01-02T07:12:48.416Z,5.50
2018-01-02T07:13:22.333Z,5.57
2018-01-02T07:13:56.350Z,6.85
2018-01-02T07:14:30.217Z,7.10
2018-01-02T07:15:04.061Z,6.45
2018-01-02T07:15:38.033Z,6.28
2018-01-02T07:16:11.936Z,7.70
2018-01-02T07:16:45.823Z,6.25
2018-01-02T07:17:19.708Z,6.07
2018-01-02T07:17:53.611Z,5.62
2018-01-02T07:18:27.636Z,5.90
2018-01-02T07:19:01.513Z,5.30
2018-01-02T07:19:35.417Z,5.60
2018-01-02T07:20:09.272Z,5.35
2018-01-02T07:20:43.208Z,4.70
2018-01-02T07:21:17.209Z,5.20
2018-01-02T07:21:51.160Z,4.90
2018-01-02T07:22:25.043Z,5.57
2018-01-02T07:22:59.032Z,5.10
2018-01-02T07:23:32.908Z,4.95
2018-01-02T07:24:06.828Z,5.55
2018-01-02T07:24:40.792Z,4.82
2018-01-02T07:25:14.784Z,5.35
2018-01-02T07:25:48.852Z,5.28
2018-01-02T07:26:22.909Z,6.25
2018-01-02T07:26:56.787Z,6.68
2018-01-02T07:27:30.781Z,5.40
2018-01-02T07:28:04.836Z,5.60
2018-01-02T07:28:38.821Z,6.05
2018-01-02T07:29:12.698Z,5.05
2018-01-02T07:29:46.669Z,5.20
2018-01-02T07:30:20.749Z,6.40
2018-01-02T07:30:54.622Z,4.97
2018-01-02T07:31:28.581Z,5.82
2018-01-02T07:32:02.569Z,5.12
2018-01-02T07:32:36.478Z,5.10